createdAt,value
2019-01-17T00:04:30.754Z,27.87
2019-01-17T00:09:50.859Z,27.70
2019-01-17T00:15:13.006Z,27.73
2019-01-17T00:20:50.315Z,26.57
2019-01-17T00:26:09.600Z,30.20
2019-01-17T00:31:34.005Z,30.33
2019-01-17T00:37:05.990Z,26.27
2019-01-17T00:42:28.857Z,22.93
2019-01-17T00:48:00.841Z,22.13
2019-01-17T00:53:25.556Z,26.30
2019-01-17T00:58:46.991Z,31.60
2019-01-17T01:04:06.374Z,24.70
2019-01-17T01:09:32.518Z,25.87
2019-01-17T01:14:54.459Z,28.80
2019-01-17T01:20:19.890Z,28.30
2019-01-17T01:25:42.657Z,30.57
2019-01-17T01:31:11.365Z,23.93
2019-01-17T01:36:40.067Z,26.30
2019-01-17T01:41:51.490Z,20.00
2019-01-17T01:47:32.258Z,25.43
2019-01-17T01:52:49.082Z,22.03
2019-01-17T01:57:52.529Z,20.60
2019-01-17T02:02:56.009Z,19.43
2019-01-17T02:08:02.600Z,18.03
2019-01-17T02:13:05.970Z,16.90
2019-01-17T02:18:12.150Z,20.73
2019-01-17T02:23:18.493Z,14.30
2019-01-17T02:28:21.940Z,13.90
2019-01-17T02:33:26.936Z,15.80
2019-01-17T02:38:30.549Z,12.70
2019-01-17T02:43:33.917Z,12.40
2019-01-17T02:48:37.226Z,14.23
2019-01-17T02:53:43.758Z,13.03
2019-01-17T02:58:47.196Z,10.00
2019-01-17T03:03:50.441Z,8.40
2019-01-17T03:08:53.642Z,7.80
2019-01-17T03:13:56.954Z,7.97
2019-01-17T03:19:00.615Z,7.60
2019-01-17T03:24:03.985Z,8.10
2019-01-17T03:29:07.271Z,6.97
2019-01-17T03:34:10.753Z,5.70
2019-01-17T03:39:16.930Z,5.33
2019-01-17T03:44:20.272Z,3.73
2019-01-17T03:49:27.036Z,4.80
2019-01-17T03:54:33.382Z,3.67
2019-01-17T03:59:36.723Z,2.63
2019-01-17T04:04:40.135Z,2.50
2019-01-17T04:09:43.400Z,4.03
2019-01-17T04:14:46.720Z,4.53
2019-01-17T04:19:52.779Z,3.13
2019-01-17T04:24:57.494Z,2.70
2019-01-17T04:30:01.501Z,7.83
2019-01-17T04:35:04.963Z,4.80
2019-01-17T04:40:08.698Z,5.53
2019-01-17T04:45:12.931Z,4.80
2019-01-17T04:50:21.916Z,5.83
2019-01-17T04:55:25.425Z,5.80
2019-01-17T05:00:28.915Z,5.87
2019-01-17T05:05:32.211Z,5.17
2019-01-17T05:10:41.715Z,5.67
2019-01-17T05:15:48.502Z,6.33
2019-01-17T05:20:51.693Z,4.47
2019-01-17T05:25:55.070Z,6.10
2019-01-17T05:30:58.582Z,6.40
2019-01-17T05:36:02.249Z,8.80
2019-01-17T05:41:08.467Z,5.57
2019-01-17T05:46:11.946Z,6.23
2019-01-17T05:51:15.355Z,6.33
2019-01-17T05:56:21.946Z,6.57
2019-01-17T06:01:25.294Z,9.33
2019-01-17T06:06:33.012Z,9.90
2019-01-17T06:11:33.714Z,8.73
2019-01-17T06:16:37.087Z,6.87
2019-01-17T06:21:57.742Z,9.77
2019-01-17T06:27:01.208Z,11.57
2019-01-17T06:32:07.107Z,6.40
2019-01-17T06:37:10.645Z,8.53
2019-01-17T06:42:14.001Z,15.17
2019-01-17T06:47:19.004Z,8.30
2019-01-17T06:52:22.460Z,8.80
2019-01-17T06:57:25.795Z,11.63
2019-01-17T07:02:32.317Z,6.73
2019-01-17T07:07:35.467Z,7.63
2019-01-17T07:12:38.883Z,7.10
2019-01-17T07:17:42.269Z,11.37
2019-01-17T07:22:48.039Z,13.90
2019-01-17T07:27:54.224Z,7.77
2019-01-17T07:32:57.592Z,9.17
2019-01-17T07:38:01.222Z,14.23
2019-01-17T07:43:07.353Z,11.90
2019-01-17T07:48:10.913Z,11.33
2019-01-17T07:53:14.301Z,8.07
2019-01-17T07:58:17.708Z,9.13
2019-01-17T08:03:24.226Z,13.00
2019-01-17T08:08:27.495Z,12.90
2019-01-17T08:13:34.021Z,8.33
2019-01-17T08:18:37.535Z,9.53
2019-01-17T08:23:42.346Z,10.00
2019-01-17T08:28:45.647Z,10.30
2019-01-17T08:33:49.060Z,11.00
2019-01-17T08:38:52.258Z,11.30
2019-01-17T08:43:55.698Z,10.40
2019-01-17T08:48:59.093Z,11.57
2019-01-17T08:54:02.572Z,10.40
2019-01-17T08:59:05.938Z,14.20
2019-01-17T09:04:09.307Z,9.27
2019-01-17T09:09:12.728Z,10.97
2019-01-17T09:14:17.614Z,9.43
2019-01-17T09:19:21.252Z,12.60
2019-01-17T09:24:24.715Z,10.17
2019-01-17T09:29:30.076Z,15.40
2019-01-17T09:34:33.411Z,13.80
2019-01-17T09:39:39.720Z,13.30
2019-01-17T09:44:43.102Z,7.80
2019-01-17T09:49:46.433Z,14.03
2019-01-17T09:54:51.293Z,14.17
2019-01-17T09:59:54.702Z,11.40
2019-01-17T10:05:01.149Z,6.80
2019-01-17T10:10:05.108Z,7.33
2019-01-17T10:15:19.167Z,9.43
2019-01-17T10:21:13.066Z,8.50
2019-01-17T10:26:47.611Z,10.70
2019-01-17T10:32:45.808Z,7.60
2019-01-17T10:38:24.032Z,8.43
2019-01-17T10:43:58.609Z,13.50
2019-01-17T10:49:29.533Z,11.47
2019-01-17T10:55:06.330Z,11.07
2019-01-17T11:00:50.298Z,10.97
2019-01-17T11:06:39.254Z,9.60
2019-01-17T11:12:12.483Z,11.13
2019-01-17T11:18:24.811Z,10.50
2019-01-17T11:23:57.308Z,16.10
2019-01-17T11:29:37.787Z,9.43
2019-01-17T11:35:17.347Z,13.17
2019-01-17T11:40:50.154Z,8.23
2019-01-17T11:46:41.180Z,11.63
2019-01-17T11:52:44.393Z,10.63
2019-01-17T11:58:26.551Z,12.77
2019-01-17T12:04:05.256Z,7.67
2019-01-17T12:09:08.521Z,10.13
2019-01-17T12:14:11.808Z,12.80
2019-01-17T12:19:15.292Z,8.80
2019-01-17T12:24:18.802Z,13.50
2019-01-17T12:29:30.666Z,7.83
2019-01-17T12:34:34.254Z,10.97
2019-01-17T12:39:37.679Z,10.20
2019-01-17T12:44:43.819Z,9.90
2019-01-17T12:49:47.436Z,9.37
2019-01-17T12:54:50.798Z,10.73
2019-01-17T12:59:54.315Z,7.27
2019-01-17T13:05:00.375Z,9.57
2019-01-17T13:10:04.342Z,13.57
2019-01-17T13:15:09.262Z,7.07
2019-01-17T13:20:14.667Z,5.40
2019-01-17T13:25:20.297Z,3.83
2019-01-17T13:30:24.016Z,6.10
2019-01-17T13:35:29.011Z,6.47
2019-01-17T13:40:33.405Z,9.50
2019-01-17T13:45:42.021Z,7.33
2019-01-17T13:50:45.595Z,4.70
2019-01-17T13:55:48.850Z,6.53
2019-01-17T14:00:55.142Z,3.73
2019-01-17T14:05:58.443Z,5.47
2019-01-17T14:11:02.009Z,2.77
2019-01-17T14:16:06.074Z,2.17
2019-01-17T14:21:12.147Z,2.63
2019-01-17T14:26:15.560Z,5.80
2019-01-17T14:31:19.065Z,4.00
2019-01-17T14:36:22.655Z,4.17
2019-01-17T14:41:26.099Z,2.10
2019-01-17T14:46:29.686Z,3.33
2019-01-17T14:51:35.759Z,4.43
2019-01-17T14:56:39.796Z,5.60
2019-01-17T15:01:46.786Z,7.70
2019-01-17T15:06:56.242Z,2.77
2019-01-17T15:12:04.876Z,3.63
2019-01-17T15:17:08.398Z,3.47
2019-01-17T15:22:12.085Z,2.60
2019-01-17T15:27:18.601Z,4.40
2019-01-17T15:32:22.489Z,7.37
2019-01-17T15:37:26.576Z,5.67
2019-01-17T15:42:31.100Z,6.03
2019-01-17T15:47:34.812Z,5.80
2019-01-17T15:52:38.739Z,6.37
2019-01-17T15:57:43.762Z,4.53
2019-01-17T16:02:47.134Z,14.03
2019-01-17T16:07:50.387Z,2.90
2019-01-17T16:12:53.819Z,3.47
2019-01-17T16:17:56.980Z,2.37
2019-01-17T16:23:00.434Z,4.93
2019-01-17T16:28:03.953Z,8.10
2019-01-17T16:33:07.222Z,3.43
2019-01-17T16:38:12.444Z,9.60
2019-01-17T16:43:15.928Z,2.40
2019-01-17T16:48:19.448Z,5.10
2019-01-17T16:53:22.903Z,6.20
2019-01-17T16:58:26.215Z,5.93
2019-01-17T17:03:31.321Z,2.80
2019-01-17T17:08:34.764Z,3.77
2019-01-17T17:13:47.002Z,2.27
2019-01-17T17:18:50.495Z,4.43
2019-01-17T17:23:53.726Z,3.20
2019-01-17T17:28:57.027Z,6.57
2019-01-17T17:34:00.502Z,6.23
2019-01-17T17:39:06.124Z,2.23
2019-01-17T17:44:12.454Z,5.97
2019-01-17T17:49:15.908Z,7.10
2019-01-17T17:54:19.201Z,4.43
2019-01-17T17:59:22.637Z,6.30
2019-01-17T18:04:26.097Z,6.23
2019-01-17T18:09:29.448Z,6.67
2019-01-17T18:14:32.743Z,4.73
2019-01-17T18:19:36.163Z,3.30
2019-01-17T18:24:45.689Z,5.80
2019-01-17T18:29:49.038Z,3.20
2019-01-17T18:34:55.281Z,2.40
2019-01-17T18:40:00.353Z,1.80
2019-01-17T18:45:04.761Z,1.73
2019-01-17T18:50:10.914Z,1.60
2019-01-17T18:55:14.320Z,2.40
2019-01-17T19:00:29.746Z,1.63
2019-01-17T19:05:35.856Z,3.50
2019-01-17T19:10:48.308Z,2.60
2019-01-17T19:15:51.696Z,2.30
2019-01-17T19:20:57.873Z,14.73
2019-01-17T19:26:01.174Z,2.37
2019-01-17T19:31:04.865Z,2.60
2019-01-17T19:36:08.835Z,5.90
2019-01-17T19:41:12.409Z,4.40
2019-01-17T19:46:17.022Z,10.33
2019-01-17T19:51:23.165Z,6.83
2019-01-17T19:56:26.598Z,6.40
2019-01-17T20:01:30.002Z,7.40
2019-01-17T20:06:33.570Z,5.80
2019-01-17T20:11:39.917Z,9.10
2019-01-17T20:16:43.463Z,7.73
2019-01-17T20:21:46.879Z,20.30
2019-01-17T20:26:50.231Z,10.50
2019-01-17T20:31:55.289Z,6.80
2019-01-17T20:36:59.893Z,2.50
2019-01-17T20:42:03.279Z,2.40
2019-01-17T20:47:06.559Z,2.07
2019-01-17T20:52:10.118Z,1.53
2019-01-17T20:57:14.404Z,2.47
2019-01-17T21:02:19.161Z,1.30
2019-01-17T21:07:22.508Z,1.30
2019-01-17T21:12:28.726Z,1.70
2019-01-17T21:17:32.099Z,3.33
2019-01-17T21:22:38.482Z,2.20
2019-01-17T21:27:47.875Z,2.07
2019-01-17T21:32:51.210Z,2.53
2019-01-17T21:37:55.169Z,4.17
2019-01-17T21:42:58.527Z,2.50
2019-01-17T21:48:05.338Z,2.17
2019-01-17T21:53:10.534Z,1.50
2019-01-17T21:58:15.323Z,2.33
2019-01-17T22:03:18.472Z,3.53
2019-01-17T22:08:21.307Z,3.30
2019-01-17T22:13:27.220Z,2.40
2019-01-17T22:18:30.612Z,2.57
2019-01-17T22:23:33.972Z,2.40
2019-01-17T22:28:40.941Z,5.00
2019-01-17T22:33:46.226Z,2.37
2019-01-17T22:38:49.841Z,2.10
2019-01-17T22:43:53.273Z,4.07
2019-01-17T22:48:56.600Z,3.33
2019-01-17T22:53:59.828Z,2.90
2019-01-17T22:59:09.102Z,4.57
2019-01-17T23:04:08.543Z,3.33
2019-01-17T23:09:11.919Z,2.50
2019-01-17T23:14:15.324Z,2.33
2019-01-17T23:19:18.737Z,2.20
2019-01-17T23:24:25.107Z,2.50
2019-01-17T23:29:28.224Z,2.13
2019-01-17T23:34:31.831Z,4.90
2019-01-17T23:39:35.098Z,3.10
2019-01-17T23:44:41.582Z,2.33
2019-01-17T23:49:46.591Z,1.73
2019-01-17T23:54:53.220Z,5.50
